Fairdale, Pennsylvania
Current Conditions -  °F | °C
As of 6:53 AM on Friday 19 Dec 2014 (Local Time) from KMGW Reporting Station
Overcast Overcast  
Wind Chill: 22°   Ceiling: 2400
Heat Index: 28°   Visibility: 10mi
Dew Point: 20°   Wind: 6mph
Humidity: 72%   Direction: 230°SW
Pressure: 30.19"   Gusts: NA
Location:  39.864°N, 80.0039°W
Report Text: KMGW 191153Z 23005KT 10SM OVC024 M02/M07 A3019 RMK AO2 SLP238 T10221067 11022 21028 53006
Loading
Personal Weather Stations






























Interactive Weather Map New forecast layout! Learn more

10-Day Weather Forecast

Advertisements
Track Severe Weather on mobile